Delray Beach, FL

1:49 PM EST on December 25, 2014 (GMT -0500)
Fort Lauderdale Executive | Change Station
CLOSE
Current Station
Airport
Location: Fort Lauderdale,
Elevation: 13 ft
Nearby Weather Stations

Elev 13 ft 26.20 °N, 80.18 °W | Updated 56 minutes ago

Overcast
Overcast
70 °F
Feels Like 70 °F
N
9
Wind Variable Wind from NNW

Today
High -- | Low -- °F
--% Chance of Precip.
Yesterday
High -- | Low -- °F
Precip. -- in
7:05 AM 5:35 PM
Waxing Crescent, 18% visible
Pressure 30.14 in
Visibility 10.0 miles
Clouds Few 2100 ft
Overcast 3100 ft
Dew Point 60 °F
Humidity 71%
Rainfall 0.12 in
Snow Depth Not available.
UV 2 out of 12
Pollen 2.90 out of 12
Air Quality Not available.
Flu Activity Not available.
METAR KFXE 251753Z 34008KT 10SM FEW021 OVC031 21/16 A3013 RMK AO2 SLP207 T02110156 10211 20200 58009

More Conditions Fewer Conditions

Pressure 30.14 in
Visibility 10.0 miles
Clouds Few 2100 ft
Overcast 3100 ft
Dew Point 60 °F
Humidity 71%
Rainfall 0.12 in
Snow Depth Not available.
UV 2 out of 12
Pollen 2.90 out of 12
Air Quality Not available.
Flu Activity Not available.
METAR KFXE 251753Z 34008KT 10SM FEW021 OVC031 21/16 A3013 RMK AO2 SLP207 T02110156 10211 20200 58009

More Conditions Fewer Conditions

10-Day Weather Forecast

Almanac

Astronomy

Dec. 25, 2014 Rise Set
Actual Time
Civil Twilight
Nautical Twilight
Astronomical Twilight
Moon
Length of Visible Light
Length of Day
Tomorrow will be .
, % of the Moon is Illuminated

Today's Extremes

State Highs State Lows

Community

WunderPhotos

Upload Photos

1,780,358 photos uploaded!

WunderBlogs® & News

Nearby

Air Quality

  Air Quality AQ Index Pollutant
Not available.

Snow Depth

Station Depth Elevation

Earthquake Activity

City Distance Mag. Time & Date
Minimum magnitude displayed is 2.5.

Coastal Water Temperatures

Place Temperature

Nearby Weather Stations